sensor_id;sensor_type;location;lat;lon;timestamp;pressure;altitude;pressure_sealevel;temperature;humidity
74905;BME280;63465;50.862;6.220;2024-02-26T00:02:05;97890.41;;;5.96;69.98
74905;BME280;63465;50.862;6.220;2024-02-26T00:04:31;97889.53;;;5.98;70.10
74905;BME280;63465;50.862;6.220;2024-02-26T00:06:57;97893.81;;;5.98;69.88
74905;BME280;63465;50.862;6.220;2024-02-26T00:09:23;97892.97;;;5.96;70.35
74905;BME280;63465;50.862;6.220;2024-02-26T00:11:48;97889.53;;;5.98;70.74
74905;BME280;63465;50.862;6.220;2024-02-26T00:14:13;97886.16;;;5.95;70.34
74905;BME280;63465;50.862;6.220;2024-02-26T00:16:42;97880.25;;;5.91;70.88
74905;BME280;63465;50.862;6.220;2024-02-26T00:19:08;97880.28;;;5.90;71.02
74905;BME280;63465;50.862;6.220;2024-02-26T00:21:33;97876.75;;;5.94;71.09
74905;BME280;63465;50.862;6.220;2024-02-26T00:23:58;97869.03;;;5.94;71.48
74905;BME280;63465;50.862;6.220;2024-02-26T00:26:24;97864.88;;;5.88;71.20
74905;BME280;63465;50.862;6.220;2024-02-26T00:28:49;97869.16;;;5.88;72.19
74905;BME280;63465;50.862;6.220;2024-02-26T00:31:14;97865.78;;;5.84;72.24
74905;BME280;63465;50.862;6.220;2024-02-26T00:33:40;97864.94;;;5.84;72.26
74905;BME280;63465;50.862;6.220;2024-02-26T00:36:05;97862.34;;;5.87;72.78
74905;BME280;63465;50.862;6.220;2024-02-26T00:46:16;97858.28;;;5.75;73.57
74905;BME280;63465;50.862;6.220;2024-02-26T00:48:42;97856.59;;;5.74;73.65
74905;BME280;63465;50.862;6.220;2024-02-26T00:51:07;97856.69;;;5.69;73.74
74905;BME280;63465;50.862;6.220;2024-02-26T00:53:33;97864.38;;;5.71;74.35
74905;BME280;63465;50.862;6.220;2024-02-26T00:55:58;97856.78;;;5.65;74.42
74905;BME280;63465;50.862;6.220;2024-02-26T00:58:27;97850.00;;;5.62;75.54
74905;BME280;63465;50.862;6.220;2024-02-26T01:00:52;97866.34;;;5.58;74.96
74905;BME280;63465;50.862;6.220;2024-02-26T01:03:18;97863.72;;;5.61;75.48
74905;BME280;63465;50.862;6.220;2024-02-26T01:05:43;97850.00;;;5.61;75.93
74905;BME280;63465;50.862;6.220;2024-02-26T01:08:09;97855.25;;;5.56;75.67
74905;BME280;63465;50.862;6.220;2024-02-26T01:10:34;97856.16;;;5.54;75.59
74905;BME280;63465;50.862;6.220;2024-02-26T01:12:59;97856.13;;;5.55;76.09
74905;BME280;63465;50.862;6.220;2024-02-26T01:15:25;97858.63;;;5.60;76.56
74905;BME280;63465;50.862;6.220;2024-02-26T01:17:50;97850.00;;;5.61;75.62
74905;BME280;63465;50.862;6.220;2024-02-26T01:20:16;97856.94;;;5.57;76.25
74905;BME280;63465;50.862;6.220;2024-02-26T01:22:42;97841.44;;;5.62;75.96
74905;BME280;63465;50.862;6.220;2024-02-26T01:25:08;97845.78;;;5.60;75.58
74905;BME280;63465;50.862;6.220;2024-02-26T01:27:35;97840.66;;;5.58;75.54
74905;BME280;63465;50.862;6.220;2024-02-26T01:30:01;97849.31;;;5.54;76.76
74905;BME280;63465;50.862;6.220;2024-02-26T01:32:28;97841.53;;;5.57;76.24
74905;BME280;63465;50.862;6.220;2024-02-26T01:34:53;97849.28;;;5.56;75.96
74905;BME280;63465;50.862;6.220;2024-02-26T01:37:18;97836.47;;;5.53;76.43
74905;BME280;63465;50.862;6.220;2024-02-26T01:39:44;97845.03;;;5.53;77.08
74905;BME280;63465;50.862;6.220;2024-02-26T01:42:09;97842.47;;;5.53;76.67
74905;BME280;63465;50.862;6.220;2024-02-26T01:44:34;97843.41;;;5.49;77.44
74905;BME280;63465;50.862;6.220;2024-02-26T01:47:00;97844.25;;;5.51;77.48
74905;BME280;63465;50.862;6.220;2024-02-26T01:49:27;97838.25;;;5.51;77.08
74905;BME280;63465;50.862;6.220;2024-02-26T01:51:52;97840.88;;;5.48;77.77
74905;BME280;63465;50.862;6.220;2024-02-26T01:54:18;97838.31;;;5.48;78.06
74905;BME280;63465;50.862;6.220;2024-02-26T01:56:43;97837.41;;;5.49;78.12
74905;BME280;63465;50.862;6.220;2024-02-26T01:59:09;97837.47;;;5.47;78.62
74905;BME280;63465;50.862;6.220;2024-02-26T02:01:35;97841.69;;;5.50;78.37
74905;BME280;63465;50.862;6.220;2024-02-26T02:04:01;97843.47;;;5.48;78.20
74905;BME280;63465;50.862;6.220;2024-02-26T02:06:27;97845.97;;;5.49;78.64
74905;BME280;63465;50.862;6.220;2024-02-26T02:08:56;97846.91;;;5.45;78.73
74905;BME280;63465;50.862;6.220;2024-02-26T02:11:21;97841.75;;;5.48;78.75
74905;BME280;63465;50.862;6.220;2024-02-26T02:13:47;97833.19;;;5.46;78.38
74905;BME280;63465;50.862;6.220;2024-02-26T02:16:13;97840.09;;;5.44;78.82
74905;BME280;63465;50.862;6.220;2024-02-26T02:18:38;97847.75;;;5.46;78.58
74905;BME280;63465;50.862;6.220;2024-02-26T02:21:04;97842.69;;;5.43;78.92
74905;BME280;63465;50.862;6.220;2024-02-26T02:23:29;97838.44;;;5.42;79.13
74905;BME280;63465;50.862;6.220;2024-02-26T02:25:56;97834.22;;;5.39;78.94
74905;BME280;63465;50.862;6.220;2024-02-26T02:28:23;97841.00;;;5.42;79.10
74905;BME280;63465;50.862;6.220;2024-02-26T02:30:50;97833.28;;;5.42;79.02
74905;BME280;63465;50.862;6.220;2024-02-26T02:33:16;97838.44;;;5.42;78.83
74905;BME280;63465;50.862;6.220;2024-02-26T02:35:42;97841.84;;;5.42;79.21
74905;BME280;63465;50.862;6.220;2024-02-26T02:38:07;97846.19;;;5.39;79.26
74905;BME280;63465;50.862;6.220;2024-02-26T02:40:33;97846.22;;;5.37;79.45
74905;BME280;63465;50.862;6.220;2024-02-26T02:42:58;97839.41;;;5.36;79.57
74905;BME280;63465;50.862;6.220;2024-02-26T02:45:25;97841.22;;;5.33;80.27
74905;BME280;63465;50.862;6.220;2024-02-26T02:47:50;97839.44;;;5.35;80.24
74905;BME280;63465;50.862;6.220;2024-02-26T02:50:15;97836.06;;;5.33;80.27
74905;BME280;63465;50.862;6.220;2024-02-26T02:52:41;97835.25;;;5.31;80.68
74905;BME280;63465;50.862;6.220;2024-02-26T02:55:06;97835.22;;;5.32;80.63
74905;BME280;63465;50.862;6.220;2024-02-26T02:57:32;97839.38;;;5.38;80.81
74905;BME280;63465;50.862;6.220;2024-02-26T02:59:58;97837.66;;;5.38;80.97
74905;BME280;63465;50.862;6.220;2024-02-26T03:02:23;97835.94;;;5.37;80.63
74905;BME280;63465;50.862;6.220;2024-02-26T03:04:50;97834.31;;;5.35;80.39
74905;BME280;63465;50.862;6.220;2024-02-26T03:07:15;97837.66;;;5.38;80.93
74905;BME280;63465;50.862;6.220;2024-02-26T03:09:40;97839.38;;;5.38;80.69
74905;BME280;63465;50.862;6.220;2024-02-26T03:12:06;97846.22;;;5.37;80.69
74905;BME280;63465;50.862;6.220;2024-02-26T03:14:31;97828.22;;;5.40;80.67
74905;BME280;63465;50.862;6.220;2024-02-26T03:16:57;97832.50;;;5.38;80.45
74905;BME280;63465;50.862;6.220;2024-02-26T03:19:22;97836.78;;;5.39;79.91
74905;BME280;63465;50.862;6.220;2024-02-26T03:21:47;97831.63;;;5.39;80.13
74905;BME280;63465;50.862;6.220;2024-02-26T03:24:13;97838.50;;;5.37;80.54
74905;BME280;63465;50.862;6.220;2024-02-26T03:26:38;97841.94;;;5.38;80.08
74905;BME280;63465;50.862;6.220;2024-02-26T03:29:04;97838.47;;;5.40;80.32
74905;BME280;63465;50.862;6.220;2024-02-26T03:31:29;97846.19;;;5.40;80.23
74905;BME280;63465;50.862;6.220;2024-02-26T03:33:55;97837.63;;;5.40;80.32
74905;BME280;63465;50.862;6.220;2024-02-26T03:36:20;97839.34;;;5.39;80.89
74905;BME280;63465;50.862;6.220;2024-02-26T03:38:47;97823.09;;;5.37;80.91
74905;BME280;63465;50.862;6.220;2024-02-26T03:41:12;97830.78;;;5.40;80.73
74905;BME280;63465;50.862;6.220;2024-02-26T03:43:37;97828.22;;;5.40;81.15
74905;BME280;63465;50.862;6.220;2024-02-26T03:46:03;97837.66;;;5.38;80.54
74905;BME280;63465;50.862;6.220;2024-02-26T03:48:28;97834.13;;;5.44;80.42
74905;BME280;63465;50.862;6.220;2024-02-26T03:50:53;97841.00;;;5.42;80.73
74905;BME280;63465;50.862;6.220;2024-02-26T03:53:19;97844.50;;;5.39;80.99
74905;BME280;63465;50.862;6.220;2024-02-26T03:55:44;97847.06;;;5.39;80.87
74905;BME280;63465;50.862;6.220;2024-02-26T03:58:12;97846.19;;;5.39;81.01
74905;BME280;63465;50.862;6.220;2024-02-26T04:00:37;97852.16;;;5.41;81.22
74905;BME280;63465;50.862;6.220;2024-02-26T04:03:02;97849.59;;;5.41;81.11
74905;BME280;63465;50.862;6.220;2024-02-26T04:05:28;97858.25;;;5.35;81.40
74905;BME280;63465;50.862;6.220;2024-02-26T04:07:53;97850.66;;;5.31;81.23
74905;BME280;63465;50.862;6.220;2024-02-26T04:10:19;97846.28;;;5.34;81.52
74905;BME280;63465;50.862;6.220;2024-02-26T04:12:44;97834.31;;;5.33;81.22
74905;BME280;63465;50.862;6.220;2024-02-26T04:15:10;97837.75;;;5.34;81.10
74905;BME280;63465;50.862;6.220;2024-02-26T04:17:36;97836.88;;;5.33;80.99
74905;BME280;63465;50.862;6.220;2024-02-26T04:20:02;97837.72;;;5.35;81.20
74905;BME280;63465;50.862;6.220;2024-02-26T04:22:27;97839.38;;;5.38;81.48
74905;BME280;63465;50.862;6.220;2024-02-26T04:24:53;97842.09;;;5.30;81.74
74905;BME280;63465;50.862;6.220;2024-02-26T04:27:18;97843.16;;;5.20;81.75
74905;BME280;63465;50.862;6.220;2024-02-26T04:29:43;97844.06;;;5.17;82.33
74905;BME280;63465;50.862;6.220;2024-02-26T04:32:09;97844.94;;;5.16;82.90
74905;BME280;63465;50.862;6.220;2024-02-26T04:34:34;97851.88;;;5.11;82.88
74905;BME280;63465;50.862;6.220;2024-02-26T04:37:00;97833.91;;;5.13;82.93
74905;BME280;63465;50.862;6.220;2024-02-26T04:39:25;97837.44;;;5.06;82.93
74905;BME280;63465;50.862;6.220;2024-02-26T04:41:51;97840.16;;;4.98;83.73
74905;BME280;63465;50.862;6.220;2024-02-26T04:44:16;97849.59;;;4.96;83.81
74905;BME280;63465;50.862;6.220;2024-02-26T04:46:42;97838.41;;;5.02;84.26
74905;BME280;63465;50.862;6.220;2024-02-26T04:49:07;97836.63;;;5.04;84.41
74905;BME280;63465;50.862;6.220;2024-02-26T04:51:32;97838.25;;;5.09;84.22
74905;BME280;63465;50.862;6.220;2024-02-26T04:53:57;97840.69;;;5.14;83.61
74905;BME280;63465;50.862;6.220;2024-02-26T04:56:23;97844.16;;;5.13;83.26
74905;BME280;63465;50.862;6.220;2024-02-26T04:58:48;97844.13;;;5.14;83.80
74905;BME280;63465;50.862;6.220;2024-02-26T05:01:15;97842.41;;;5.15;83.97
74905;BME280;63465;50.862;6.220;2024-02-26T05:03:41;97832.91;;;5.18;83.53
74905;BME280;63465;50.862;6.220;2024-02-26T05:06:08;97843.25;;;5.15;83.91
74905;BME280;63465;50.862;6.220;2024-02-26T05:08:34;97845.00;;;5.13;83.88
74905;BME280;63465;50.862;6.220;2024-02-26T05:11:01;97846.72;;;5.13;84.07
74905;BME280;63465;50.862;6.220;2024-02-26T05:13:27;97856.22;;;5.09;83.79
74905;BME280;63465;50.862;6.220;2024-02-26T05:15:53;97861.44;;;5.05;84.17
74905;BME280;63465;50.862;6.220;2024-02-26T05:18:18;97855.41;;;5.06;84.12
74905;BME280;63465;50.862;6.220;2024-02-26T05:20:43;97862.16;;;5.10;84.28
74905;BME280;63465;50.862;6.220;2024-02-26T05:23:09;97863.84;;;5.12;84.29
74905;BME280;63465;50.862;6.220;2024-02-26T05:25:34;97864.75;;;5.10;84.51
74905;BME280;63465;50.862;6.220;2024-02-26T05:28:00;97864.69;;;5.13;84.46
74905;BME280;63465;50.862;6.220;2024-02-26T05:30:25;97865.56;;;5.12;84.54
74905;BME280;63465;50.862;6.220;2024-02-26T05:32:53;97872.41;;;5.11;84.10
74905;BME280;63465;50.862;6.220;2024-02-26T05:35:18;97874.97;;;5.13;84.50
74905;BME280;63465;50.862;6.220;2024-02-26T05:37:44;97878.31;;;5.16;83.89
74905;BME280;63465;50.862;6.220;2024-02-26T05:40:09;97866.38;;;5.14;84.29
74905;BME280;63465;50.862;6.220;2024-02-26T05:42:35;97868.91;;;5.15;84.35
74905;BME280;63465;50.862;6.220;2024-02-26T05:45:00;97868.94;;;5.14;83.77
74905;BME280;63465;50.862;6.220;2024-02-26T05:47:31;97875.00;;;5.11;83.85
74905;BME280;63465;50.862;6.220;2024-02-26T05:49:57;97876.78;;;5.08;84.06
74905;BME280;63465;50.862;6.220;2024-02-26T05:52:24;97878.56;;;5.04;84.33
74905;BME280;63465;50.862;6.220;2024-02-26T05:54:50;97881.13;;;5.04;84.51
74905;BME280;63465;50.862;6.220;2024-02-26T05:57:15;97887.09;;;5.05;84.61
74905;BME280;63465;50.862;6.220;2024-02-26T05:59:40;97896.53;;;5.03;84.54
74905;BME280;63465;50.862;6.220;2024-02-26T06:02:05;97900.81;;;5.04;84.94
74905;BME280;63465;50.862;6.220;2024-02-26T06:04:31;97901.66;;;5.04;84.63
74905;BME280;63465;50.862;6.220;2024-02-26T06:06:56;97897.44;;;5.02;84.38
74905;BME280;63465;50.862;6.220;2024-02-26T06:09:22;97907.66;;;5.03;84.29
74905;BME280;63465;50.862;6.220;2024-02-26T06:11:48;97906.84;;;5.01;84.78
74905;BME280;63465;50.862;6.220;2024-02-26T06:14:13;97897.44;;;5.00;84.75
74905;BME280;63465;50.862;6.220;2024-02-26T06:16:43;97905.16;;;5.00;84.55
74905;BME280;63465;50.862;6.220;2024-02-26T06:19:08;97912.84;;;5.02;84.79
74905;BME280;63465;50.862;6.220;2024-02-26T06:21:33;97918.78;;;5.04;84.50
74905;BME280;63465;50.862;6.220;2024-02-26T06:23:59;97923.91;;;5.04;84.64
74905;BME280;63465;50.862;6.220;2024-02-26T06:26:24;97927.31;;;5.04;84.54
74905;BME280;63465;50.862;6.220;2024-02-26T06:28:51;97918.75;;;5.05;84.78
74905;BME280;63465;50.862;6.220;2024-02-26T06:31:17;97932.47;;;5.04;84.66
74905;BME280;63465;50.862;6.220;2024-02-26T06:33:42;97928.25;;;5.02;84.51
74905;BME280;63465;50.862;6.220;2024-02-26T06:36:08;97933.38;;;5.00;85.12
74905;BME280;63465;50.862;6.220;2024-02-26T06:38:33;97937.66;;;5.00;85.07
74905;BME280;63465;50.862;6.220;2024-02-26T06:40:58;97939.38;;;5.01;85.42
74905;BME280;63465;50.862;6.220;2024-02-26T06:43:24;97939.38;;;4.99;85.33
74905;BME280;63465;50.862;6.220;2024-02-26T06:45:49;97950.50;;;4.98;84.93
74905;BME280;63465;50.862;6.220;2024-02-26T06:48:14;97948.84;;;4.97;85.30
74905;BME280;63465;50.862;6.220;2024-02-26T06:50:39;97948.84;;;4.97;85.10
74905;BME280;63465;50.862;6.220;2024-02-26T06:53:06;97948.00;;;4.97;85.21
74905;BME280;63465;50.862;6.220;2024-02-26T06:55:32;97949.72;;;4.96;85.33
74905;BME280;63465;50.862;6.220;2024-02-26T06:57:57;97954.84;;;4.95;85.52
74905;BME280;63465;50.862;6.220;2024-02-26T07:00:23;97958.28;;;4.95;85.63
74905;BME280;63465;50.862;6.220;2024-02-26T07:02:48;97961.72;;;4.94;85.38
74905;BME280;63465;50.862;6.220;2024-02-26T07:05:13;97953.16;;;4.95;84.38
74905;BME280;63465;50.862;6.220;2024-02-26T07:07:39;97965.91;;;4.98;84.67
74905;BME280;63465;50.862;6.220;2024-02-26T07:10:05;97975.38;;;4.96;84.86
74905;BME280;63465;50.862;6.220;2024-02-26T07:12:31;97979.66;;;4.97;85.82
74905;BME280;63465;50.862;6.220;2024-02-26T07:14:56;97981.38;;;4.97;85.50
74905;BME280;63465;50.862;6.220;2024-02-26T07:17:23;97984.72;;;5.00;85.23
74905;BME280;63465;50.862;6.220;2024-02-26T07:19:48;97989.84;;;5.02;85.06
74905;BME280;63465;50.862;6.220;2024-02-26T07:22:13;97985.47;;;5.07;85.61
74905;BME280;63465;50.862;6.220;2024-02-26T07:24:39;97990.63;;;5.05;85.26
74905;BME280;63465;50.862;6.220;2024-02-26T07:27:04;98000.06;;;5.03;85.57
74905;BME280;63465;50.862;6.220;2024-02-26T07:29:29;97994.91;;;5.05;85.51
74905;BME280;63465;50.862;6.220;2024-02-26T07:31:55;98006.06;;;5.04;85.55
74905;BME280;63465;50.862;6.220;2024-02-26T07:34:21;98011.94;;;5.10;85.39
74905;BME280;63465;50.862;6.220;2024-02-26T07:36:52;98009.34;;;5.13;85.59
74905;BME280;63465;50.862;6.220;2024-02-26T07:39:17;98015.28;;;5.15;84.91
74905;BME280;63465;50.862;6.220;2024-02-26T07:41:43;98015.28;;;5.15;84.87
74905;BME280;63465;50.862;6.220;2024-02-26T07:44:11;98006.72;;;5.15;84.65
74905;BME280;63465;50.862;6.220;2024-02-26T07:46:37;98024.75;;;5.13;84.81
74905;BME280;63465;50.862;6.220;2024-02-26T07:49:02;98011.94;;;5.10;84.81
74905;BME280;63465;50.862;6.220;2024-02-26T07:51:28;98019.63;;;5.12;84.77
74905;BME280;63465;50.862;6.220;2024-02-26T07:53:53;98028.13;;;5.14;85.18
74905;BME280;63465;50.862;6.220;2024-02-26T07:56:18;98033.25;;;5.14;85.17
74905;BME280;63465;50.862;6.220;2024-02-26T07:58:43;98029.03;;;5.13;85.10
74905;BME280;63465;50.862;6.220;2024-02-26T08:01:09;98030.75;;;5.12;85.30
74905;BME280;63465;50.862;6.220;2024-02-26T08:03:37;98032.41;;;5.15;85.22
74905;BME280;63465;50.862;6.220;2024-02-26T08:06:03;98040.09;;;5.16;85.55
74905;BME280;63465;50.862;6.220;2024-02-26T08:08:28;98046.06;;;5.17;85.52
74905;BME280;63465;50.862;6.220;2024-02-26T08:10:54;98042.59;;;5.19;85.42
74905;BME280;63465;50.862;6.220;2024-02-26T08:13:19;98054.59;;;5.19;85.17
74905;BME280;63465;50.862;6.220;2024-02-26T08:15:44;98044.31;;;5.19;85.36
74905;BME280;63465;50.862;6.220;2024-02-26T08:18:09;98047.75;;;5.18;85.83
74905;BME280;63465;50.862;6.220;2024-02-26T08:20:35;98064.84;;;5.20;85.39
74905;BME280;63465;50.862;6.220;2024-02-26T08:23:00;98051.97;;;5.22;85.55
74905;BME280;63465;50.862;6.220;2024-02-26T08:25:26;98063.13;;;5.21;85.56
74905;BME280;63465;50.862;6.220;2024-02-26T08:27:51;98064.91;;;5.17;85.01
74905;BME280;63465;50.862;6.220;2024-02-26T08:30:17;98054.59;;;5.19;85.21
74905;BME280;63465;50.862;6.220;2024-02-26T08:32:43;98064.91;;;5.17;85.26
74905;BME280;63465;50.862;6.220;2024-02-26T08:35:09;98064.91;;;5.16;85.44
74905;BME280;63465;50.862;6.220;2024-02-26T08:37:34;98058.94;;;5.15;84.98
74905;BME280;63465;50.862;6.220;2024-02-26T08:39:59;98073.47;;;5.15;85.54
74905;BME280;63465;50.862;6.220;2024-02-26T08:42:26;98076.84;;;5.18;85.58
74905;BME280;63465;50.862;6.220;2024-02-26T08:44:51;98070.84;;;5.19;85.33
74905;BME280;63465;50.862;6.220;2024-02-26T08:47:17;98075.97;;;5.21;85.06
74905;BME280;63465;50.862;6.220;2024-02-26T08:49:44;98071.72;;;5.18;85.44
74905;BME280;63465;50.862;6.220;2024-02-26T08:52:09;98076.84;;;5.18;85.26
74905;BME280;63465;50.862;6.220;2024-02-26T08:54:34;98083.69;;;5.19;85.46
74905;BME280;63465;50.862;6.220;2024-02-26T08:57:00;98085.38;;;5.20;85.03
74905;BME280;63465;50.862;6.220;2024-02-26T08:59:25;98095.66;;;5.19;85.38
74905;BME280;63465;50.862;6.220;2024-02-26T09:01:50;98103.38;;;5.19;85.12
74905;BME280;63465;50.862;6.220;2024-02-26T09:04:16;98093.94;;;5.21;85.14
74905;BME280;63465;50.862;6.220;2024-02-26T09:06:41;98104.13;;;5.25;85.29
74905;BME280;63465;50.862;6.220;2024-02-26T09:09:06;98108.38;;;5.26;85.35
74905;BME280;63465;50.862;6.220;2024-02-26T09:11:31;98111.00;;;5.23;85.34
74905;BME280;63465;50.862;6.220;2024-02-26T09:13:57;98118.66;;;5.26;85.48
74905;BME280;63465;50.862;6.220;2024-02-26T09:16:22;98119.47;;;5.30;85.85
74905;BME280;63465;50.862;6.220;2024-02-26T09:18:47;98121.97;;;5.35;85.60
74905;BME280;63465;50.862;6.220;2024-02-26T09:21:13;98128.00;;;5.32;85.70
74905;BME280;63465;50.862;6.220;2024-02-26T09:23:38;98126.25;;;5.34;85.53
74905;BME280;63465;50.862;6.220;2024-02-26T09:26:05;98130.47;;;5.38;85.36
74905;BME280;63465;50.862;6.220;2024-02-26T09:28:31;98132.25;;;5.33;85.50
74905;BME280;63465;50.862;6.220;2024-02-26T09:31:03;98138.34;;;5.29;85.53
74905;BME280;63465;50.862;6.220;2024-02-26T09:33:28;98141.69;;;5.33;85.41
74905;BME280;63465;50.862;6.220;2024-02-26T09:35:53;98150.34;;;5.27;85.74
74905;BME280;63465;50.862;6.220;2024-02-26T09:38:19;98145.94;;;5.34;85.92
74905;BME280;63465;50.862;6.220;2024-02-26T09:40:44;98155.31;;;5.38;85.73
74905;BME280;63465;50.862;6.220;2024-02-26T09:43:14;98162.25;;;5.33;85.54
74905;BME280;63465;50.862;6.220;2024-02-26T09:45:41;98169.91;;;5.36;85.57
74905;BME280;63465;50.862;6.220;2024-02-26T09:48:08;98168.19;;;5.36;85.68
74905;BME280;63465;50.862;6.220;2024-02-26T09:50:34;98168.94;;;5.41;85.90
74905;BME280;63465;50.862;6.220;2024-02-26T09:52:59;98174.06;;;5.44;85.83
74905;BME280;63465;50.862;6.220;2024-02-26T09:55:27;98173.09;;;5.50;85.61
74905;BME280;63465;50.862;6.220;2024-02-26T09:57:53;98175.63;;;5.53;84.92
74905;BME280;63465;50.862;6.220;2024-02-26T10:00:20;98180.78;;;5.51;84.82
74905;BME280;63465;50.862;6.220;2024-02-26T10:02:46;98184.97;;;5.57;84.57
74905;BME280;63465;50.862;6.220;2024-02-26T10:05:18;98186.63;;;5.61;84.85
74905;BME280;63465;50.862;6.220;2024-02-26T10:07:45;98188.25;;;5.68;85.26
74905;BME280;63465;50.862;6.220;2024-02-26T10:10:10;98195.13;;;5.66;84.49
74905;BME280;63465;50.862;6.220;2024-02-26T10:12:36;98197.63;;;5.70;84.46
74905;BME280;63465;50.862;6.220;2024-02-26T10:15:01;98204.47;;;5.71;83.75
74905;BME280;63465;50.862;6.220;2024-02-26T10:17:26;98194.09;;;5.76;83.61
74905;BME280;63465;50.862;6.220;2024-02-26T10:19:53;98204.28;;;5.82;83.90
74905;BME280;63465;50.862;6.220;2024-02-26T10:22:22;98208.47;;;5.89;84.07
74905;BME280;63465;50.862;6.220;2024-02-26T10:24:47;98210.41;;;5.75;83.14
74905;BME280;63465;50.862;6.220;2024-02-26T10:27:13;98213.84;;;5.74;83.74
74905;BME280;63465;50.862;6.220;2024-02-26T10:29:40;98218.06;;;5.77;83.66
74905;BME280;63465;50.862;6.220;2024-02-26T10:32:07;98217.13;;;5.82;83.51
74905;BME280;63465;50.862;6.220;2024-02-26T10:34:35;98226.56;;;5.82;83.90
74905;BME280;63465;50.862;6.220;2024-02-26T10:37:03;98221.38;;;5.86;83.97
74905;BME280;63465;50.862;6.220;2024-02-26T10:39:28;98227.25;;;5.94;84.05
74905;BME280;63465;50.862;6.220;2024-02-26T10:41:53;98226.28;;;6.00;83.97
74905;BME280;63465;50.862;6.220;2024-02-26T10:44:19;98224.63;;;5.97;83.04
74905;BME280;63465;50.862;6.220;2024-02-26T10:46:46;98234.06;;;5.98;83.71
74905;BME280;63465;50.862;6.220;2024-02-26T10:49:14;98235.69;;;6.02;83.58
74905;BME280;63465;50.862;6.220;2024-02-26T10:51:43;98244.16;;;6.07;83.87
74905;BME280;63465;50.862;6.220;2024-02-26T10:54:12;98243.25;;;6.11;83.61
74905;BME280;63465;50.862;6.220;2024-02-26T10:56:41;98247.56;;;6.09;82.78
74905;BME280;63465;50.862;6.220;2024-02-26T10:59:09;98245.94;;;6.04;83.57
74905;BME280;63465;50.862;6.220;2024-02-26T11:01:35;98247.69;;;6.02;83.34
74905;BME280;63465;50.862;6.220;2024-02-26T11:04:03;98258.84;;;6.02;83.57
74905;BME280;63465;50.862;6.220;2024-02-26T11:06:29;98264.00;;;6.01;83.42
74905;BME280;63465;50.862;6.220;2024-02-26T11:08:55;98263.94;;;6.04;83.23
74905;BME280;63465;50.862;6.220;2024-02-26T11:11:21;98265.66;;;6.05;83.37
74905;BME280;63465;50.862;6.220;2024-02-26T11:13:48;98263.06;;;6.05;82.78
74905;BME280;63465;50.862;6.220;2024-02-26T11:16:21;98269.94;;;6.04;83.03
74905;BME280;63465;50.862;6.220;2024-02-26T11:18:47;98276.78;;;6.07;82.79
74905;BME280;63465;50.862;6.220;2024-02-26T11:21:15;98274.09;;;6.11;82.91
74905;BME280;63465;50.862;6.220;2024-02-26T11:23:42;98282.63;;;6.15;83.27
74905;BME280;63465;50.862;6.220;2024-02-26T11:26:09;98285.28;;;6.10;83.08
74905;BME280;63465;50.862;6.220;2024-02-26T11:28:35;98288.72;;;6.09;83.39
74905;BME280;63465;50.862;6.220;2024-02-26T11:31:02;98286.22;;;6.06;83.02
74905;BME280;63465;50.862;6.220;2024-02-26T11:33:29;98287.06;;;6.07;83.35
74905;BME280;63465;50.862;6.220;2024-02-26T11:35:55;98282.78;;;6.04;83.00
74905;BME280;63465;50.862;6.220;2024-02-26T11:38:22;98277.66;;;6.04;83.13
74905;BME280;63465;50.862;6.220;2024-02-26T11:40:49;98293.94;;;6.03;82.90
74905;BME280;63465;50.862;6.220;2024-02-26T11:43:15;98296.56;;;6.02;83.24
74905;BME280;63465;50.862;6.220;2024-02-26T11:48:12;98300.13;;;5.92;83.29
74905;BME280;63465;50.862;6.220;2024-02-26T11:50:42;98296.63;;;5.97;83.38
74905;BME280;63465;50.862;6.220;2024-02-26T11:53:38;98306.03;;;5.98;83.44
74905;BME280;63465;50.862;6.220;2024-02-26T11:56:21;98297.59;;;5.90;83.45
74905;BME280;63465;50.862;6.220;2024-02-26T11:59:00;98304.47;;;5.88;83.50
74905;BME280;63465;50.862;6.220;2024-02-26T12:04:12;98303.56;;;5.92;83.96
74905;BME280;63465;50.862;6.220;2024-02-26T12:06:44;98313.78;;;5.95;83.97
74905;BME280;63465;50.862;6.220;2024-02-26T12:09:10;98312.06;;;5.96;84.12
74905;BME280;63465;50.862;6.220;2024-02-26T12:11:39;98307.72;;;5.99;84.06
74905;BME280;63465;50.862;6.220;2024-02-26T12:14:09;98313.72;;;6.00;83.04
74905;BME280;63465;50.862;6.220;2024-02-26T12:16:38;98318.84;;;6.00;83.72
74905;BME280;63465;50.862;6.220;2024-02-26T12:19:05;98318.84;;;6.01;83.82
74905;BME280;63465;50.862;6.220;2024-02-26T12:21:33;98323.13;;;6.01;84.27
74905;BME280;63465;50.862;6.220;2024-02-26T12:24:09;98329.09;;;6.04;84.53
74905;BME280;63465;50.862;6.220;2024-02-26T12:26:35;98330.84;;;6.02;84.53
74905;BME280;63465;50.862;6.220;2024-02-26T12:29:00;98329.16;;;6.00;84.08
74905;BME280;63465;50.862;6.220;2024-02-26T12:31:26;98344.75;;;5.88;84.09
74905;BME280;63465;50.862;6.220;2024-02-26T12:33:54;98337.91;;;5.85;84.01
74905;BME280;63465;50.862;6.220;2024-02-26T12:36:20;98351.66;;;5.83;84.40
74905;BME280;63465;50.862;6.220;2024-02-26T12:38:46;98360.22;;;5.83;84.61
74905;BME280;63465;50.862;6.220;2024-02-26T12:41:11;98360.25;;;5.82;84.83
74905;BME280;63465;50.862;6.220;2024-02-26T12:43:37;98367.13;;;5.80;84.54
74905;BME280;63465;50.862;6.220;2024-02-26T12:46:03;98374.06;;;5.74;84.73
74905;BME280;63465;50.862;6.220;2024-02-26T12:48:29;98380.03;;;5.75;85.09
74905;BME280;63465;50.862;6.220;2024-02-26T12:50:54;98392.03;;;5.73;85.29
74905;BME280;63465;50.862;6.220;2024-02-26T12:53:21;98392.00;;;5.76;85.04
74905;BME280;63465;50.862;6.220;2024-02-26T12:55:46;98398.03;;;5.75;85.08
74905;BME280;63465;50.862;6.220;2024-02-26T12:58:12;98398.00;;;5.77;85.53
74905;BME280;63465;50.862;6.220;2024-02-26T13:00:38;98398.84;;;5.77;85.55
74905;BME280;63465;50.862;6.220;2024-02-26T13:03:04;98410.84;;;5.78;85.37
74905;BME280;63465;50.862;6.220;2024-02-26T13:05:30;98401.38;;;5.80;85.72
74905;BME280;63465;50.862;6.220;2024-02-26T13:07:56;98420.28;;;5.76;85.42
74905;BME280;63465;50.862;6.220;2024-02-26T13:10:21;98417.69;;;5.79;85.23
74905;BME280;63465;50.862;6.220;2024-02-26T13:12:48;98418.47;;;5.84;85.25
74905;BME280;63465;50.862;6.220;2024-02-26T13:15:20;98425.31;;;5.85;85.36
74905;BME280;63465;50.862;6.220;2024-02-26T13:17:46;98421.03;;;5.86;85.78